This is the latest recevied weather packets stored in our database for station/object WB3IGR. If no packets are shown the sender has not sent any weather packets the latest 10 day(s).
| Time | Temp. | Humidity | Pressure | Rain* | Wind** | Luminosity | Snow |
|---|---|---|---|---|---|---|---|
| 1778164913 | 14.44° C | 55% | 1013.9 hPa | 0 mm | - | 734 W/m² | - |
| 1778164609 | 14.44° C | 55% | 1013.9 hPa | 0 mm | - | 703 W/m² | - |
| 1778164306 | 14.44° C | 57% | 1014.1 hPa | 0 mm | - | 644 W/m² | - |
| 1778164002 | 13.89° C | 54% | 1014.1 hPa | 0 mm | - | 679 W/m² | - |
| 1778163694 | 13.89° C | 58% | 1014.1 hPa | 0 mm | - | 664 W/m² | - |
| 1778163390 | 14.44° C | 55% | 1014.1 hPa | 0 mm | - | 621 W/m² | - |
| 1778163087 | 13.33° C | 57% | 1014.1 hPa | 0 mm | - | 610 W/m² | - |
| 1778162783 | 13.33° C | 58% | 1014.1 hPa | 0 mm | - | 636 W/m² | - |
| 1778162481 | 13.33° C | 62% | 1014.4 hPa | 0 mm | - | 648 W/m² | - |
| 1778162178 | 12.78° C | 59% | 1014.4 hPa | 0 mm | - | 634 W/m² | - |
| 1778161876 | 12.78° C | 61% | 1014.4 hPa | 0 mm | - | 681 W/m² | - |
| 1778161571 | 12.22° C | 60% | 1014.1 hPa | 0 mm | - | 282 W/m² | - |
| 1778161267 | 12.78° C | 59% | 1014.4 hPa | 0 mm | - | 649 W/m² | - |
| 1778160963 | 12.78° C | 60% | 1014.5 hPa | 0 mm | - | 600 W/m² | - |
| 1778160661 | 12.78° C | 60% | 1014.5 hPa | 0 mm | - | 562 W/m² | - |
| 1778160358 | 12.78° C | 61% | 1014.5 hPa | 0 mm | - | 531 W/m² | - |
| 1778160054 | 12.78° C | 63% | 1014.5 hPa | 0 mm | - | 500 W/m² | - |
| 1778159751 | 11.67° C | 65% | 1014.5 hPa | 0 mm | - | 466 W/m² | - |
| 1778159449 | 12.22° C | 63% | 1014.4 hPa | 0 mm | - | 443 W/m² | - |
| 1778159145 | 12.22° C | 65% | 1014.5 hPa | 0 mm | - | 422 W/m² | - |
| 1778158844 | 12.22° C | 65% | 1014.3 hPa | 0 mm | - | 391 W/m² | - |
| 1778158542 | 11.67° C | 65% | 1014.3 hPa | 0 mm | - | 370 W/m² | - |
| 1778158239 | 11.67° C | 65% | 1014.4 hPa | 0 mm | - | 356 W/m² | - |
| 1778157935 | 11.67° C | 65% | 1014.3 hPa | 0 mm | - | 353 W/m² | - |
| 1778157633 | 11.67° C | 65% | 1014.4 hPa | 0 mm | - | 325 W/m² | - |
* Rain latest hour (hover to see other rain measurements)
** Current wind speed in m/s (hover to see current wind gust speed)